Time;durP1;ratioP1;P1;durP2;ratioP2;P2;SDS_P1;SDS_P2;PMS_P1;PMS_P2;Temp;Humidity;BMP_temperature;BMP_pressure;BME280_temperature;BME280_humidity;BME280_pressure;Samples;Min_cycle;Max_cycle;Signal;HPM_P1;HPM_P2
2021/05/30 00:01:13;;;;;;;3.62;3.22;;;;;;;16.08;71.78;99003.94;1722053;82;21132;-42
2021/05/30 00:03:40;;;;;;;3.85;3.05;;;;;;;16.07;71.73;99003.74;1710079;82;21090;-42
2021/05/30 00:06:08;;;;;;;5.78;2.98;;;;;;;16.02;71.92;99005.55;1725484;82;20983;-42
2021/05/30 00:08:34;;;;;;;5.78;2.55;;;;;;;15.98;71.93;98999.33;1741247;82;21078;-42
2021/05/30 00:11:03;;;;;;;3.50;2.40;;;;;;;16.02;71.92;98997.95;1722377;82;21053;-41
2021/05/30 00:13:30;;;;;;;5.08;2.90;;;;;;;16.07;71.85;98994.17;1720745;82;21075;-42
2021/05/30 00:15:58;;;;;;;6.25;3.20;;;;;;;16.09;71.74;98993.78;1721183;82;21612;-42
2021/05/30 00:18:27;;;;;;;3.72;3.00;;;;;;;16.11;71.68;98987.91;1721724;82;20982;-42
2021/05/30 00:20:54;;;;;;;3.20;2.90;;;;;;;16.10;71.56;98988.50;1723957;82;20987;-42
2021/05/30 00:23:21;;;;;;;3.75;2.37;;;;;;;16.07;71.57;98990.06;1746983;82;21074;-42
2021/05/30 00:25:47;;;;;;;6.92;2.70;;;;;;;16.11;71.57;98987.91;1726103;82;21808;-41
2021/05/30 00:28:14;;;;;;;7.05;2.80;;;;;;;16.18;71.47;98989.20;1734890;82;20975;-42
2021/05/30 00:30:40;;;;;;;3.87;2.85;;;;;;;16.20;71.36;98997.20;1740850;82;21038;-42
2021/05/30 00:33:07;;;;;;;5.55;3.08;;;;;;;16.21;71.29;98993.28;1721061;82;21003;-42
2021/05/30 00:35:34;;;;;;;4.78;3.05;;;;;;;16.22;71.20;98991.30;1742742;82;21080;-42
2021/05/30 00:38:01;;;;;;;4.03;2.83;;;;;;;16.23;71.11;98995.59;1742506;82;21950;-41
2021/05/30 00:40:27;;;;;;;3.10;2.80;;;;;;;16.23;71.09;98988.76;1738347;82;21648;-42
2021/05/30 00:42:54;;;;;;;3.40;2.60;;;;;;;16.27;71.13;98993.01;1747662;82;20991;-42
2021/05/30 00:45:21;;;;;;;3.42;3.12;;;;;;;16.30;70.97;98999.64;1748373;82;21015;-41
2021/05/30 00:47:48;;;;;;;3.65;3.17;;;;;;;16.32;70.95;98994.52;1725925;82;20982;-42
2021/05/30 00:50:14;;;;;;;7.95;3.22;;;;;;;16.32;70.95;98988.46;1737643;82;21063;-42
2021/05/30 00:52:42;;;;;;;5.00;2.83;;;;;;;16.32;70.92;98992.56;1750271;82;21015;-42
2021/05/30 00:55:11;;;;;;;5.12;3.05;;;;;;;16.35;70.85;98993.14;1722285;82;21031;-42
2021/05/30 00:57:38;;;;;;;5.15;3.90;;;;;;;16.34;70.73;98989.44;1708211;82;21009;-42
2021/05/30 01:00:09;;;;;;;4.90;3.25;;;;;;;16.35;70.84;98998.61;1733074;80;21076;-41
2021/05/30 01:02:36;;;;;;;3.83;3.40;;;;;;;16.36;70.78;98995.29;1747542;80;21028;-42
2021/05/30 01:05:05;;;;;;;3.98;3.55;;;;;;;16.34;70.75;98994.91;1746100;80;21036;-42
2021/05/30 01:07:36;;;;;;;4.08;3.25;;;;;;;16.34;70.70;98999.01;1791414;79;21073;-42
2021/05/30 01:10:34;;;;;;;5.58;3.55;;;;;;;16.37;70.64;98994.86;1784892;79;20983;-42
2021/05/30 01:13:02;;;;;;;5.70;3.45;;;;;;;16.39;70.61;98991.73;1780296;79;20908;-42
2021/05/30 01:15:32;;;;;;;4.40;3.30;;;;;;;16.38;70.67;98997.01;1799495;79;21781;-42
2021/05/30 01:17:58;;;;;;;7.35;3.52;;;;;;;16.40;70.57;98996.02;1783455;79;20986;-42
2021/05/30 01:20:27;;;;;;;3.27;2.85;;;;;;;16.40;70.48;98999.53;1781825;79;20971;-42
2021/05/30 01:22:54;;;;;;;5.17;3.40;;;;;;;16.39;70.37;99002.08;1780866;79;21003;-42
2021/05/30 01:25:23;;;;;;;3.52;3.15;;;;;;;16.42;70.26;99001.26;1808280;77;21034;-42
2021/05/30 01:27:51;;;;;;;3.77;3.37;;;;;;;16.45;70.19;99003.78;1784898;79;21024;-42
2021/05/30 01:30:20;;;;;;;5.10;3.77;;;;;;;16.46;70.19;98999.84;1786818;79;20998;-42
2021/05/30 01:32:47;;;;;;;4.83;3.12;;;;;;;16.46;70.14;99002.58;1802637;79;21894;-42
2021/05/30 01:35:14;;;;;;;6.92;3.47;;;;;;;16.48;70.17;99005.70;1791739;79;21030;-42
2021/05/30 01:37:42;;;;;;;4.67;2.70;;;;;;;16.46;70.10;99003.36;1783548;79;21813;-42
2021/05/30 01:40:12;;;;;;;3.55;3.25;;;;;;;16.50;70.01;99001.98;1788839;79;22079;-42
2021/05/30 01:42:39;;;;;;;4.58;3.47;;;;;;;16.52;69.94;99006.43;1781397;77;20997;-42
2021/05/30 01:45:09;;;;;;;4.65;3.30;;;;;;;16.49;69.94;99006.67;1786281;77;21022;-42
2021/05/30 01:47:40;;;;;;;4.78;3.80;;;;;;;16.43;70.01;99006.92;1801465;79;21019;-42
2021/05/30 01:50:10;;;;;;;3.62;3.33;;;;;;;16.38;70.12;99007.36;1808665;79;21014;-42
2021/05/30 01:52:36;;;;;;;3.95;3.47;;;;;;;16.28;70.32;99004.73;1781776;79;21061;-42
2021/05/30 01:55:07;;;;;;;3.45;3.08;;;;;;;16.25;70.48;99002.81;1780210;79;21031;-42
2021/05/30 01:57:47;;;;;;;4.60;3.50;;;;;;;16.26;70.54;99000.27;1800565;79;20931;-42
2021/05/30 02:00:15;;;;;;;5.22;3.37;;;;;;;16.23;70.54;98999.11;1791240;78;21616;-42
2021/05/30 02:02:51;;;;;;;5.12;3.55;;;;;;;16.19;70.61;99001.11;1776964;79;21043;-42
2021/05/30 02:05:20;;;;;;;7.85;3.52;;;;;;;16.17;70.77;99007.56;1784953;78;21650;-42
2021/05/30 02:07:49;;;;;;;7.17;2.95;;;;;;;16.16;70.78;99011.50;1784542;79;21115;-42
2021/05/30 02:10:17;;;;;;;3.73;3.43;;;;;;;16.16;70.83;99010.72;1784674;78;20995;-42
2021/05/30 02:14:14;;;;;;;6.80;3.77;;;;;;;16.20;70.83;99012.83;1766813;79;22641;-41
2021/05/30 02:16:42;;;;;;;5.95;3.72;;;;;;;16.07;71.01;99015.30;1718762;82;21672;-41
2021/05/30 02:19:09;;;;;;;4.67;3.12;;;;;;;16.01;71.10;99013.58;1721552;82;21019;-41
2021/05/30 02:21:49;;;;;;;6.33;3.70;;;;;;;16.00;71.27;99013.98;1747823;82;21035;-41
2021/05/30 02:24:17;;;;;;;7.43;3.53;;;;;;;16.05;71.28;99009.44;1726333;82;21058;-40
2021/05/30 02:26:44;;;;;;;4.67;3.77;;;;;;;16.07;71.17;99009.20;1722363;82;21054;-41
2021/05/30 02:29:23;;;;;;;5.20;4.42;;;;;;;16.05;71.23;99008.86;1735447;82;20975;-41
2021/05/30 02:31:50;;;;;;;4.55;3.85;;;;;;;16.02;71.21;99014.36;1719030;82;22453;-41
2021/05/30 02:34:16;;;;;;;4.83;3.92;;;;;;;16.00;71.37;99018.08;1742374;82;20999;-40
2021/05/30 02:36:43;;;;;;;5.92;3.83;;;;;;;15.98;71.32;99022.58;1720532;82;21589;-41
2021/05/30 02:39:10;;;;;;;5.15;3.80;;;;;;;16.00;71.28;99020.23;1722898;82;21001;-41
2021/05/30 02:41:37;;;;;;;4.30;3.87;;;;;;;16.03;71.20;99028.98;1721985;82;20971;-41
2021/05/30 02:44:04;;;;;;;8.30;4.10;;;;;;;16.01;71.25;99029.98;1719501;82;21157;-41
2021/05/30 02:46:31;;;;;;;4.10;3.80;;;;;;;16.00;71.39;99031.75;1720239;82;21030;-41
2021/05/30 02:48:59;;;;;;;7.40;3.70;;;;;;;16.01;71.39;99035.45;1718273;82;21042;-40
2021/05/30 02:51:25;;;;;;;4.50;4.10;;;;;;;16.01;71.49;99035.45;1719426;82;21022;-41
2021/05/30 02:53:52;;;;;;;5.30;4.28;;;;;;;16.02;71.47;99038.97;1718687;82;21573;-41
2021/05/30 02:56:18;;;;;;;4.58;4.17;;;;;;;16.00;71.45;99039.36;1732954;82;21056;-41
2021/05/30 02:58:45;;;;;;;6.28;3.83;;;;;;;16.00;71.41;99038.59;1717864;82;21006;-41
2021/05/30 03:01:11;;;;;;;4.35;3.30;;;;;;;15.98;71.45;99035.47;1720278;82;20975;-41
2021/05/30 03:03:38;;;;;;;5.95;4.12;;;;;;;15.99;71.46;99040.54;1746161;82;21098;-41
2021/05/30 03:06:06;;;;;;;5.78;3.83;;;;;;;16.01;71.43;99047.77;1733094;82;21147;-41
2021/05/30 03:08:32;;;;;;;7.60;4.40;;;;;;;16.00;71.53;99042.09;1720935;82;21078;-41
2021/05/30 03:11:00;;;;;;;5.33;3.70;;;;;;;16.01;71.62;99042.30;1722440;82;21015;-41
2021/05/30 03:13:27;;;;;;;6.25;4.20;;;;;;;16.01;71.50;99046.39;1719277;82;21122;-41
2021/05/30 03:15:54;;;;;;;8.33;3.83;;;;;;;15.93;71.51;99043.51;1721097;82;21369;-41
2021/05/30 03:18:20;;;;;;;5.60;4.30;;;;;;;15.88;71.94;99043.94;1719917;82;21440;-41
2021/05/30 03:20:47;;;;;;;6.53;4.28;;;;;;;15.83;72.10;99040.88;1738613;82;21564;-41
2021/05/30 03:23:14;;;;;;;4.55;4.00;;;;;;;15.79;72.18;99039.52;1738752;82;21019;-41
2021/05/30 03:25:43;;;;;;;7.20;4.40;;;;;;;15.78;72.18;99039.33;1719932;82;21059;-40
2021/05/30 03:28:10;;;;;;;4.60;3.62;;;;;;;15.75;72.17;99041.50;1722250;82;22076;-41
2021/05/30 03:30:37;;;;;;;5.03;4.25;;;;;;;15.71;72.25;99040.76;1718231;83;20964;-41
2021/05/30 03:33:04;;;;;;;4.60;4.08;;;;;;;15.69;72.40;99041.73;1721084;82;21660;-40
2021/05/30 03:35:31;;;;;;;4.97;4.28;;;;;;;15.66;72.39;99043.91;1725804;82;21589;-41
2021/05/30 03:38:00;;;;;;;5.17;4.12;;;;;;;15.62;72.47;99045.89;1725607;82;20955;-41
2021/05/30 03:40:34;;;;;;;6.30;4.10;;;;;;;15.63;72.44;99046.09;1741616;82;21596;-40
2021/05/30 03:42:58;;;;;;;6.08;4.20;;;;;;;15.61;72.49;99048.44;1728188;82;21011;-41
2021/05/30 03:45:25;;;;;;;4.62;4.20;;;;;;;15.53;72.61;99042.84;1736103;82;21664;-40
2021/05/30 03:47:53;;;;;;;7.85;3.65;;;;;;;15.42;73.10;99037.98;1747288;82;21008;-41
2021/05/30 03:50:19;;;;;;;7.10;3.60;;;;;;;15.35;73.29;99040.74;1746044;82;20976;-41
2021/05/30 03:52:47;;;;;;;7.83;3.80;;;;;;;15.33;73.46;99047.21;1726205;82;20975;-41
2021/05/30 03:55:14;;;;;;;6.00;3.50;;;;;;;15.33;73.62;99043.89;1718997;82;21031;-41
2021/05/30 03:57:41;;;;;;;3.87;3.47;;;;;;;15.31;73.57;99041.36;1733081;82;21065;-41
2021/05/30 04:00:15;;;;;;;5.80;3.20;;;;;;;15.28;73.73;99040.21;1726345;82;20999;-41
2021/05/30 04:02:42;;;;;;;4.75;3.60;;;;;;;15.29;73.72;99035.53;1727686;82;21107;-40
2021/05/30 04:05:11;;;;;;;5.83;3.60;;;;;;;15.28;73.91;99036.70;1725995;82;21023;-40
2021/05/30 04:07:39;;;;;;;3.45;3.08;;;;;;;15.19;73.93;99035.19;1726438;82;21026;-40
2021/05/30 04:10:09;;;;;;;6.20;3.10;;;;;;;15.14;74.18;99038.34;1723888;82;21074;-40
2021/05/30 04:12:38;;;;;;;4.03;3.47;;;;;;;15.18;74.17;99036.95;1734447;82;21008;-41
2021/05/30 04:15:08;;;;;;;6.05;3.52;;;;;;;15.18;74.23;99038.31;1718115;83;21015;-41
2021/05/30 04:17:36;;;;;;;7.58;3.58;;;;;;;15.18;74.45;99030.90;1729928;82;21007;-41
2021/05/30 04:20:07;;;;;;;4.92;2.95;;;;;;;15.17;74.41;99034.80;1718262;83;21677;-41
2021/05/30 04:22:36;;;;;;;5.30;3.30;;;;;;;15.19;74.24;99027.00;1718335;83;21061;-41
2021/05/30 04:25:05;;;;;;;5.03;3.25;;;;;;;15.22;74.29;99028.14;1736828;82;20987;-41
2021/05/30 04:27:31;;;;;;;6.12;3.52;;;;;;;15.25;73.93;99023.85;1744179;82;20963;-40
2021/05/30 04:29:59;;;;;;;3.95;2.87;;;;;;;15.24;74.10;99025.80;1722628;82;21015;-41
2021/05/30 04:32:25;;;;;;;5.08;3.15;;;;;;;15.28;73.98;99026.56;1719627;82;21103;-40
2021/05/30 04:34:52;;;;;;;5.40;3.10;;;;;;;15.35;73.88;99032.55;1727040;82;21617;-40
2021/05/30 04:37:19;;;;;;;4.42;2.80;;;;;;;15.38;73.79;99028.45;1716995;82;21855;-40
2021/05/30 04:39:45;;;;;;;3.77;3.17;;;;;;;15.39;73.36;99032.75;1717324;82;21102;-40
2021/05/30 04:42:12;;;;;;;7.42;3.58;;;;;;;15.38;73.39;99024.36;1717159;82;21054;-41
2021/05/30 04:44:39;;;;;;;3.05;2.75;;;;;;;15.42;73.26;99020.23;1717210;82;21098;-40
2021/05/30 04:47:06;;;;;;;4.00;2.92;;;;;;;15.42;73.15;99022.96;1728056;82;21118;-40
2021/05/30 04:49:34;;;;;;;3.65;3.05;;;;;;;15.40;73.14;99022.57;1746374;82;21006;-40
2021/05/30 04:52:00;;;;;;;3.85;2.95;;;;;;;15.36;73.01;99023.97;1747009;82;21055;-41
2021/05/30 04:54:27;;;;;;;3.37;3.08;;;;;;;15.33;73.13;99032.97;1739141;82;21002;-40
2021/05/30 04:56:54;;;;;;;6.33;3.00;;;;;;;15.34;73.09;99034.53;1722454;82;21094;-41
2021/05/30 04:59:21;;;;;;;4.42;3.17;;;;;;;15.29;73.10;99032.80;1718295;83;21109;-40
2021/05/30 05:01:48;;;;;;;2.95;2.65;;;;;;;15.29;73.40;99039.05;1718465;82;21046;-40
2021/05/30 05:04:15;;;;;;;3.15;2.80;;;;;;;15.35;73.33;99039.38;1718462;82;21671;-41
2021/05/30 05:06:41;;;;;;;3.62;2.62;;;;;;;15.36;72.83;99037.62;1718430;83;20960;-40
2021/05/30 05:09:09;;;;;;;3.42;2.60;;;;;;;15.32;73.07;99033.36;1728377;82;20951;-41
2021/05/30 05:11:36;;;;;;;4.97;3.22;;;;;;;15.28;73.21;99031.23;1740991;82;21089;-40
2021/05/30 05:14:03;;;;;;;3.22;2.87;;;;;;;15.25;73.37;99027.95;1711256;83;21683;-41
2021/05/30 05:16:30;;;;;;;5.92;2.62;;;;;;;15.30;73.51;99028.90;1704624;84;21103;-42
2021/05/30 05:18:59;;;;;;;4.15;2.72;;;;;;;15.34;73.28;99033.75;1719287;82;21031;-42
2021/05/30 05:21:28;;;;;;;3.90;2.60;;;;;;;15.34;73.27;99037.84;1726172;82;21031;-41
2021/05/30 05:23:54;;;;;;;3.40;2.60;;;;;;;15.35;73.49;99029.81;1704974;82;21847;-40
2021/05/30 05:26:21;;;;;;;3.83;2.60;;;;;;;15.39;73.05;99036.06;1704681;82;21015;-40
2021/05/30 05:28:48;;;;;;;4.08;2.80;;;;;;;15.38;72.83;99031.77;1704938;82;21010;-41
2021/05/30 05:31:15;;;;;;;4.85;2.77;;;;;;;15.34;73.25;99034.53;1708491;82;21011;-41
2021/05/30 05:33:43;;;;;;;6.70;3.22;;;;;;;15.34;72.90;99022.83;1733663;82;21071;-40
2021/05/30 05:36:10;;;;;;;3.27;2.98;;;;;;;15.38;73.25;99020.84;1708352;82;21089;-41
2021/05/30 05:38:37;;;;;;;5.10;3.30;;;;;;;15.46;73.42;99006.73;1733993;82;21541;-42
2021/05/30 05:41:04;;;;;;;6.62;3.45;;;;;;;15.53;73.61;99019.61;1705428;82;21071;-41
2021/05/30 05:43:31;;;;;;;5.22;2.90;;;;;;;15.59;73.68;99022.09;1704496;84;20984;-42
2021/05/30 05:45:57;;;;;;;6.60;3.10;;;;;;;15.71;73.11;99027.09;1704781;82;20976;-41
2021/05/30 05:48:24;;;;;;;4.72;3.08;;;;;;;15.84;73.00;99024.06;1717435;82;21663;-41
2021/05/30 05:50:51;;;;;;;5.58;3.60;;;;;;;15.92;72.67;99033.78;1672535;84;20963;-41
2021/05/30 05:53:18;;;;;;;3.83;3.00;;;;;;;16.02;72.81;99030.77;1704883;82;21019;-41
2021/05/30 05:55:45;;;;;;;5.35;2.70;;;;;;;16.13;72.70;99041.59;1705092;82;21549;-40
2021/05/30 05:58:11;;;;;;;3.58;2.70;;;;;;;16.31;72.09;99052.59;1710177;82;21020;-41
2021/05/30 06:00:38;;;;;;;6.08;2.85;;;;;;;16.50;71.51;99048.50;1674276;84;21086;-41
2021/05/30 06:03:05;;;;;;;6.20;3.10;;;;;;;16.60;70.48;99052.34;1704705;82;21592;-40
2021/05/30 06:05:32;;;;;;;3.67;2.80;;;;;;;16.62;70.14;99049.36;1704790;83;21629;-40
2021/05/30 06:08:01;;;;;;;3.83;2.58;;;;;;;16.65;70.04;99053.27;1705138;82;20944;-40
2021/05/30 06:10:28;;;;;;;3.35;2.70;;;;;;;16.69;70.02;99046.56;1712414;82;21661;-40
2021/05/30 06:12:58;;;;;;;3.85;3.25;;;;;;;16.68;69.68;99051.84;1704658;82;21764;-41
2021/05/30 06:15:25;;;;;;;3.45;3.12;;;;;;;16.65;69.19;99049.94;1718843;82;21092;-41
2021/05/30 06:17:56;;;;;;;7.78;3.52;;;;;;;16.63;69.35;99050.92;1718153;83;21506;-41
2021/05/30 06:20:22;;;;;;;5.05;2.95;;;;;;;16.60;69.28;99053.12;1719562;82;21651;-40
2021/05/30 06:22:49;;;;;;;4.05;3.00;;;;;;;16.53;69.10;99055.88;1731987;82;21055;-41
2021/05/30 06:25:16;;;;;;;4.05;3.45;;;;;;;16.45;69.58;99053.04;1718218;82;21038;-40
2021/05/30 06:27:43;;;;;;;6.03;3.25;;;;;;;16.42;69.76;99057.34;1718090;83;21003;-40
2021/05/30 06:30:12;;;;;;;6.17;3.72;;;;;;;16.44;69.58;99052.84;1732001;82;21001;-41
2021/05/30 06:32:39;;;;;;;3.58;3.20;;;;;;;16.48;69.56;99054.95;1727727;82;21290;-40
2021/05/30 06:35:08;;;;;;;3.77;2.62;;;;;;;16.50;69.27;99053.97;1726462;82;20943;-40
2021/05/30 06:37:35;;;;;;;4.85;2.95;;;;;;;16.49;69.50;99053.78;1743602;82;21071;-40
2021/05/30 06:40:04;;;;;;;3.62;2.60;;;;;;;16.41;68.64;99055.03;1718229;82;20994;-40
2021/05/30 06:42:31;;;;;;;5.47;3.05;;;;;;;16.35;68.64;99056.66;1718122;83;21098;-41
2021/05/30 06:44:57;;;;;;;4.30;2.80;;;;;;;16.34;69.34;99056.45;1718297;82;21031;-40
2021/05/30 06:47:24;;;;;;;3.95;3.02;;;;;;;16.33;69.36;99056.27;1718346;82;21110;-41
2021/05/30 06:49:51;;;;;;;4.00;3.20;;;;;;;16.32;69.71;99062.91;1718475;82;21778;-40
2021/05/30 06:52:18;;;;;;;5.85;3.17;;;;;;;16.30;69.54;99074.28;1720616;82;21103;-40
2021/05/30 06:54:44;;;;;;;4.40;3.25;;;;;;;16.31;69.26;99067.63;1718707;82;20975;-41
2021/05/30 06:57:13;;;;;;;6.67;3.55;;;;;;;16.30;69.53;99066.66;1718100;83;20983;-40
2021/05/30 06:59:40;;;;;;;6.10;3.50;;;;;;;16.26;70.00;99067.29;1732103;82;21131;-40
2021/05/30 07:02:07;;;;;;;6.80;3.40;;;;;;;16.24;70.02;99071.00;1718253;83;21052;-40
2021/05/30 07:04:34;;;;;;;3.67;3.12;;;;;;;16.21;69.79;99071.23;1718216;82;21114;-41
2021/05/30 07:07:02;;;;;;;4.35;3.33;;;;;;;16.24;70.46;99073.73;1718031;83;21015;-40
2021/05/30 07:09:29;;;;;;;6.12;3.67;;;;;;;16.22;69.73;99071.98;1718556;82;21017;-41
2021/05/30 07:11:56;;;;;;;4.67;3.42;;;;;;;16.19;69.71;99076.91;1718494;82;21605;-40
2021/05/30 07:14:22;;;;;;;3.70;2.98;;;;;;;16.22;70.21;99077.45;1713499;83;21688;-40
2021/05/30 07:16:49;;;;;;;7.08;3.33;;;;;;;16.32;70.39;99088.91;1711751;82;21586;-40
2021/05/30 07:19:15;;;;;;;6.42;3.00;;;;;;;16.33;70.05;99083.62;1678650;84;21046;-40
2021/05/30 07:21:42;;;;;;;4.50;2.62;;;;;;;16.33;70.00;99089.09;1674108;84;21031;-40
2021/05/30 07:24:10;;;;;;;3.65;2.92;;;;;;;16.36;69.93;99091.05;1681773;84;21166;-40
2021/05/30 07:26:37;;;;;;;2.87;2.60;;;;;;;16.44;69.64;99085.68;1704732;84;21095;-40
2021/05/30 07:29:04;;;;;;;3.58;2.90;;;;;;;16.48;69.59;99091.89;1703577;83;21079;-40
2021/05/30 07:31:31;;;;;;;3.08;2.77;;;;;;;16.53;69.95;99096.34;1697386;84;21054;-40
2021/05/30 07:33:58;;;;;;;2.80;2.60;;;;;;;16.59;69.86;99098.08;1679703;84;21027;-41
2021/05/30 07:36:28;;;;;;;2.62;2.42;;;;;;;16.65;69.68;99099.80;1704780;84;21060;-41
2021/05/30 07:38:56;;;;;;;5.53;3.42;;;;;;;16.70;69.13;99102.09;1680383;83;21927;-41
2021/05/30 07:41:23;;;;;;;3.27;2.98;;;;;;;16.66;69.38;99099.95;1674412;84;21107;-41
2021/05/30 07:43:50;;;;;;;3.22;2.90;;;;;;;16.68;69.78;99103.86;1698851;84;21123;-41
2021/05/30 07:46:17;;;;;;;4.28;2.92;;;;;;;16.75;69.16;99101.65;1697134;84;21036;-41
2021/05/30 07:48:44;;;;;;;3.12;2.83;;;;;;;16.86;69.04;99100.34;1668277;84;21029;-41
2021/05/30 07:51:11;;;;;;;3.25;2.95;;;;;;;16.88;68.52;99097.98;1699763;84;21081;-41
2021/05/30 07:53:37;;;;;;;4.55;3.20;;;;;;;16.84;67.36;99091.77;1696216;84;21085;-41
2021/05/30 07:56:05;;;;;;;5.83;2.65;;;;;;;16.85;68.59;99098.00;1694550;84;21022;-41
2021/05/30 07:58:32;;;;;;;3.25;2.55;;;;;;;16.95;67.81;99095.73;1665513;84;21132;-41
2021/05/30 08:00:59;;;;;;;6.72;3.22;;;;;;;17.07;68.02;99102.08;1660308;84;21106;-41
2021/05/30 08:03:26;;;;;;;5.80;3.40;;;;;;;17.16;67.27;99104.31;1657288;86;22222;-41
2021/05/30 08:05:53;;;;;;;10.85;3.40;;;;;;;17.21;65.98;99101.13;1658318;84;21003;-41
2021/05/30 08:08:21;;;;;;;4.00;2.50;;;;;;;17.16;65.90;99105.09;1688609;84;21503;-41
2021/05/30 08:10:50;;;;;;;2.98;2.67;;;;;;;17.13;65.82;99110.63;1675850;84;20983;-41
2021/05/30 08:13:17;;;;;;;5.53;2.70;;;;;;;17.17;66.16;99107.24;1704618;84;21119;-41
2021/05/30 08:15:44;;;;;;;4.20;2.92;;;;;;;17.19;64.86;99106.22;1714025;83;21123;-41
2021/05/30 08:18:12;;;;;;;4.67;2.85;;;;;;;17.15;64.98;99110.38;1701618;83;21078;-41
2021/05/30 08:20:39;;;;;;;6.58;2.72;;;;;;;17.09;64.64;99109.89;1699711;83;21066;-42
2021/05/30 08:23:05;;;;;;;2.80;2.50;;;;;;;17.01;65.07;99106.44;1706792;83;21593;-41
2021/05/30 08:25:32;;;;;;;3.75;2.65;;;;;;;17.10;65.50;99102.61;1709293;83;21568;-41
2021/05/30 08:27:59;;;;;;;6.30;2.72;;;;;;;17.20;66.50;99109.16;1718159;83;21130;-41
2021/05/30 08:30:26;;;;;;;3.00;2.47;;;;;;;17.32;65.33;99109.41;1718037;83;21553;-41
2021/05/30 08:32:52;;;;;;;6.17;2.67;;;;;;;17.38;64.00;99113.22;1697432;83;21073;-41
2021/05/30 08:35:19;;;;;;;4.55;2.50;;;;;;;17.41;63.84;99113.60;1696895;83;21055;-41
2021/05/30 08:37:47;;;;;;;2.90;2.33;;;;;;;17.39;63.73;99114.00;1689200;83;21023;-41
2021/05/30 08:40:17;;;;;;;7.83;2.95;;;;;;;17.39;63.97;99112.63;1692530;83;21079;-41
2021/05/30 08:42:47;;;;;;;4.97;2.83;;;;;;;17.44;63.49;99114.92;1708109;83;21581;-41
2021/05/30 08:45:15;;;;;;;3.75;2.58;;;;;;;17.47;63.88;99106.48;1702224;83;21034;-41
2021/05/30 08:47:41;;;;;;;3.77;2.98;;;;;;;17.48;63.75;99106.05;1695589;83;21594;-41
2021/05/30 08:50:10;;;;;;;4.83;2.40;;;;;;;17.52;64.28;99108.17;1657878;84;21052;-41
2021/05/30 08:52:36;;;;;;;4.85;2.25;;;;;;;17.67;64.11;99104.06;1683530;84;20988;-41
2021/05/30 08:55:05;;;;;;;5.08;2.50;;;;;;;17.87;63.61;99107.51;1717735;83;21644;-41
2021/05/30 08:57:32;;;;;;;2.67;2.42;;;;;;;18.01;62.87;99110.06;1715921;83;20984;-41
2021/05/30 08:59:58;;;;;;;3.55;2.60;;;;;;;18.09;61.90;99112.88;1697092;83;21619;-41
2021/05/30 09:02:25;;;;;;;4.55;2.92;;;;;;;18.15;61.18;99113.34;1689385;84;21683;-41
2021/05/30 09:04:56;;;;;;;3.22;2.58;;;;;;;18.12;60.96;99112.03;1717692;83;21122;-41
2021/05/30 09:07:47;;;;;;;3.75;2.60;;;;;;;18.01;61.27;99114.93;1717438;83;21046;-41
2021/05/30 09:10:22;;;;;;;3.60;2.35;;;;;;;17.94;61.78;99114.27;1695344;83;20939;-41
2021/05/30 09:12:48;;;;;;;3.92;2.50;;;;;;;17.85;60.94;99120.28;1689472;83;21063;-41
2021/05/30 09:15:49;;;;;;;5.47;2.60;;;;;;;17.80;61.80;99124.27;1640512;83;21900;-41
2021/05/30 09:18:16;;;;;;;3.52;2.47;;;;;;;17.72;61.62;99124.16;1703847;83;21046;-43
2021/05/30 09:21:01;;;;;;;7.20;3.20;;;;;;;17.54;61.80;99125.56;1715368;83;21027;-45
2021/05/30 09:23:38;;;;;;;4.60;2.80;;;;;;;17.40;63.15;99125.16;1701326;83;21018;-45
2021/05/30 09:26:19;;;;;;;3.10;2.55;;;;;;;17.35;63.96;99132.45;1716520;83;21126;-40
2021/05/30 09:29:08;;;;;;;3.55;2.80;;;;;;;17.35;64.18;99129.72;1717333;83;21090;-40
2021/05/30 09:31:56;;;;;;;3.72;2.72;;;;;;;17.32;64.64;99129.17;1708747;83;22320;-40
2021/05/30 09:34:32;;;;;;;6.83;2.98;;;;;;;17.28;64.37;99131.19;1711991;82;21007;-39
2021/05/30 09:37:00;;;;;;;6.12;2.85;;;;;;;17.23;63.84;99135.75;1689337;84;21030;-40
2021/05/30 09:39:43;;;;;;;2.50;2.30;;;;;;;17.11;64.04;99134.89;1696540;83;21058;-39
2021/05/30 09:42:34;;;;;;;2.90;2.60;;;;;;;17.01;64.48;99129.72;1691089;83;21110;-40
2021/05/30 09:45:11;;;;;;;5.17;2.80;;;;;;;16.96;64.23;99128.79;1699793;83;21089;-40
2021/05/30 09:47:45;;;;;;;4.92;3.00;;;;;;;16.90;65.08;99127.09;1702785;83;21676;-40
2021/05/30 09:50:18;;;;;;;4.37;2.80;;;;;;;16.88;65.23;99136.31;1710053;83;21014;-40
2021/05/30 09:52:48;;;;;;;6.05;2.33;;;;;;;16.88;65.81;99143.16;1706029;83;21026;-40
2021/05/30 09:55:24;;;;;;;5.22;2.70;;;;;;;16.87;65.88;99142.97;1708475;83;26731;-40
2021/05/30 09:58:16;;;;;;;3.72;2.42;;;;;;;16.97;65.92;99146.78;1700721;83;21103;-40
2021/05/30 10:00:45;;;;;;;2.92;2.65;;;;;;;17.00;64.47;99146.55;1689228;84;22242;-40
2021/05/30 10:03:13;;;;;;;4.33;2.83;;;;;;;16.95;64.98;99148.55;1689359;84;21600;-40
2021/05/30 10:05:39;;;;;;;4.05;2.80;;;;;;;16.92;64.79;99152.11;1709771;83;21621;-40
2021/05/30 10:08:06;;;;;;;3.70;2.60;;;;;;;16.92;65.00;99157.59;1716173;83;20987;-40
2021/05/30 10:10:33;;;;;;;4.70;2.95;;;;;;;16.94;64.71;99157.19;1708201;83;21117;-40
2021/05/30 10:13:02;;;;;;;3.58;2.92;;;;;;;16.97;64.97;99155.59;1710127;83;21540;-40
2021/05/30 10:15:28;;;;;;;5.33;2.90;;;;;;;16.95;65.08;99155.39;1695063;83;21091;-40
2021/05/30 10:18:19;;;;;;;2.62;2.42;;;;;;;16.95;65.54;99154.03;1688095;84;20968;-40
2021/05/30 10:20:47;;;;;;;7.95;4.05;;;;;;;17.00;65.17;99153.39;1685042;84;21067;-40
2021/05/30 10:23:17;;;;;;;4.12;2.95;;;;;;;17.08;65.30;99157.63;1683159;84;21098;-40
2021/05/30 10:25:44;;;;;;;3.02;2.72;;;;;;;17.11;64.91;99156.80;1674714;84;21637;-40
2021/05/30 10:28:19;;;;;;;4.75;2.98;;;;;;;17.09;65.02;99157.20;1686716;84;20945;-40
2021/05/30 10:30:50;;;;;;;4.85;2.72;;;;;;;17.05;65.11;99164.69;1692841;84;21126;-40
2021/05/30 10:33:24;;;;;;;2.47;2.27;;;;;;;17.07;65.79;99168.39;1672954;85;21545;-40
2021/05/30 10:35:56;;;;;;;6.20;2.83;;;;;;;17.17;65.25;99164.18;1677479;84;21630;-40
2021/05/30 10:38:39;;;;;;;3.00;2.65;;;;;;;17.26;64.87;99167.80;1687778;84;21048;-40
2021/05/30 10:41:16;;;;;;;3.58;2.75;;;;;;;17.29;64.77;99166.38;1686094;83;21087;-40
2021/05/30 10:43:44;;;;;;;3.37;2.75;;;;;;;17.27;63.71;99162.50;1689175;83;21002;-40
2021/05/30 10:46:12;;;;;;;4.90;2.77;;;;;;;17.17;63.68;99164.77;1687076;84;21091;-40
2021/05/30 10:48:41;;;;;;;4.60;3.05;;;;;;;17.08;64.60;99168.59;1688985;84;21090;-40
2021/05/30 10:51:40;;;;;;;3.98;2.70;;;;;;;17.07;64.50;99170.55;1681587;84;21050;-40
2021/05/30 10:54:11;;;;;;;3.37;2.72;;;;;;;17.09;65.02;99173.64;1687050;84;21146;-42
2021/05/30 10:56:56;;;;;;;3.17;2.87;;;;;;;17.08;65.13;99174.84;1696610;84;21031;-41
2021/05/30 10:59:26;;;;;;;4.92;2.60;;;;;;;17.05;64.97;99181.70;1665024;85;21390;-41
2021/05/30 11:01:55;;;;;;;4.03;2.60;;;;;;;16.97;65.47;99184.34;1658129;85;21121;-41
2021/05/30 11:04:31;;;;;;;4.37;2.60;;;;;;;16.95;66.02;99182.00;1676301;84;21047;-41
2021/05/30 11:07:20;;;;;;;4.00;2.65;;;;;;;16.97;66.27;99184.34;1677094;84;21027;-41
2021/05/30 11:09:57;;;;;;;5.67;2.72;;;;;;;17.00;65.70;99186.25;1682167;84;20944;-41
2021/05/30 11:12:29;;;;;;;3.02;2.67;;;;;;;17.00;65.70;99190.36;1676417;85;21059;-41
2021/05/30 11:15:19;;;;;;;3.83;3.10;;;;;;;16.99;65.62;99192.94;1676515;85;21719;-41
2021/05/30 11:17:50;;;;;;;3.08;2.40;;;;;;;16.95;65.61;99192.95;1643669;87;21014;-41
2021/05/30 11:20:30;;;;;;;2.60;2.40;;;;;;;16.96;66.27;99194.52;1639195;87;21634;-41
2021/05/30 11:23:01;;;;;;;5.22;2.77;;;;;;;17.05;65.49;99198.14;1654738;86;21615;-41
2021/05/30 11:25:40;;;;;;;4.90;2.70;;;;;;;17.01;65.54;99202.30;1638699;86;21594;-41
2021/05/30 11:28:13;;;;;;;4.12;2.70;;;;;;;16.97;65.75;99202.92;1676540;85;21070;-41
2021/05/30 11:30:58;;;;;;;3.05;1.92;;;;;;;16.91;65.34;99198.47;1674109;84;21071;-41
2021/05/30 11:33:38;;;;;;;3.52;2.33;;;;;;;16.80;65.30;99197.00;1678638;83;20955;-41
2021/05/30 11:36:04;;;;;;;2.40;2.12;;;;;;;16.76;65.96;99197.04;1691234;83;21061;-40
2021/05/30 11:38:51;;;;;;;7.08;2.25;;;;;;;16.79;65.94;99201.73;1682134;84;21034;-41
2021/05/30 11:41:34;;;;;;;2.90;2.22;;;;;;;16.76;65.97;99199.78;1704655;84;21093;-41
2021/05/30 11:44:14;;;;;;;4.12;2.00;;;;;;;16.76;65.91;99207.98;1648775;85;21046;-41
2021/05/30 11:47:03;;;;;;;3.17;2.10;;;;;;;16.74;65.39;99213.70;1689574;84;20991;-41